Terminal Aerodrome Forecast
Issued by NWS Cleveland, OH

Home | Current Version | Previous Version | Text Only | Print | Product List | Glossary On
Versions: 1 2 3 4 5 6 7 8 9 10 11 12 13 14 15 16 17 18 19 20 21 22
000
FTUS41 KCLE 160300 AAA
TAFTOL
TAF AMD
KTOL 160342Z 1604/1624 28004KT 6SM BR SCT007 BKN050
      TEMPO 1606/1608 32005KT 3SM BR BKN006
     FM160800 34004KT 4SM BR OVC006
     FM161400 32004KT P6SM BKN016
     FM162000 30004KT P6SM SCT030=

USA.gov is the U.S. government's official web portal to all federal, state and local government web resources and services.